sensor_id;sensor_type;location;lat;lon;timestamp;P1;durP1;ratioP1;P2;durP2;ratioP2
69260;SDS011;56378;52.404;20.816;2023-02-28T00:00:44;29.42;;;10.30;;
69260;SDS011;56378;52.404;20.816;2023-02-28T00:03:09;32.43;;;10.77;;
69260;SDS011;56378;52.404;20.816;2023-02-28T00:05:35;31.17;;;10.60;;
69260;SDS011;56378;52.404;20.816;2023-02-28T00:08:01;30.87;;;10.77;;
69260;SDS011;56378;52.404;20.816;2023-02-28T00:10:28;28.48;;;10.40;;
69260;SDS011;56378;52.404;20.816;2023-02-28T00:12:58;32.23;;;11.20;;
69260;SDS011;56378;52.404;20.816;2023-02-28T00:15:26;29.02;;;10.15;;
69260;SDS011;56378;52.404;20.816;2023-02-28T00:17:52;33.55;;;10.88;;
69260;SDS011;56378;52.404;20.816;2023-02-28T00:20:18;31.80;;;10.50;;
69260;SDS011;56378;52.404;20.816;2023-02-28T00:22:45;31.65;;;10.07;;
69260;SDS011;56378;52.404;20.816;2023-02-28T00:25:13;39.65;;;13.05;;
69260;SDS011;56378;52.404;20.816;2023-02-28T00:27:42;31.27;;;10.82;;
69260;SDS011;56378;52.404;20.816;2023-02-28T00:30:09;29.67;;;10.70;;
69260;SDS011;56378;52.404;20.816;2023-02-28T00:32:41;32.17;;;10.63;;
69260;SDS011;56378;52.404;20.816;2023-02-28T00:35:08;30.75;;;10.10;;
69260;SDS011;56378;52.404;20.816;2023-02-28T00:37:34;29.05;;;11.10;;
69260;SDS011;56378;52.404;20.816;2023-02-28T00:40:00;30.40;;;10.48;;
69260;SDS011;56378;52.404;20.816;2023-02-28T00:42:27;31.10;;;10.17;;
69260;SDS011;56378;52.404;20.816;2023-02-28T00:44:52;27.42;;;10.10;;
69260;SDS011;56378;52.404;20.816;2023-02-28T00:47:19;32.38;;;10.55;;
69260;SDS011;56378;52.404;20.816;2023-02-28T00:49:44;25.90;;;10.33;;
69260;SDS011;56378;52.404;20.816;2023-02-28T00:52:10;31.48;;;10.15;;
69260;SDS011;56378;52.404;20.816;2023-02-28T00:54:36;26.93;;;9.77;;
69260;SDS011;56378;52.404;20.816;2023-02-28T00:57:01;31.75;;;10.43;;
69260;SDS011;56378;52.404;20.816;2023-02-28T00:59:27;33.77;;;10.73;;
69260;SDS011;56378;52.404;20.816;2023-02-28T01:01:53;30.52;;;10.02;;
69260;SDS011;56378;52.404;20.816;2023-02-28T01:04:18;26.83;;;10.27;;
69260;SDS011;56378;52.404;20.816;2023-02-28T01:06:44;27.35;;;9.60;;
69260;SDS011;56378;52.404;20.816;2023-02-28T01:09:10;35.07;;;10.30;;
69260;SDS011;56378;52.404;20.816;2023-02-28T01:11:37;30.10;;;10.02;;
69260;SDS011;56378;52.404;20.816;2023-02-28T01:14:03;33.47;;;11.20;;
69260;SDS011;56378;52.404;20.816;2023-02-28T01:16:29;34.60;;;9.83;;
69260;SDS011;56378;52.404;20.816;2023-02-28T01:18:55;32.42;;;11.55;;
69260;SDS011;56378;52.404;20.816;2023-02-28T01:21:22;35.72;;;12.00;;
69260;SDS011;56378;52.404;20.816;2023-02-28T01:23:48;31.58;;;11.13;;
69260;SDS011;56378;52.404;20.816;2023-02-28T01:26:18;35.33;;;11.95;;
69260;SDS011;56378;52.404;20.816;2023-02-28T01:28:46;30.27;;;11.03;;
69260;SDS011;56378;52.404;20.816;2023-02-28T01:31:13;29.35;;;10.90;;
69260;SDS011;56378;52.404;20.816;2023-02-28T01:33:39;37.35;;;11.55;;
69260;SDS011;56378;52.404;20.816;2023-02-28T01:36:06;34.47;;;11.70;;
69260;SDS011;56378;52.404;20.816;2023-02-28T01:38:37;34.85;;;11.77;;
69260;SDS011;56378;52.404;20.816;2023-02-28T01:41:03;35.50;;;11.80;;
69260;SDS011;56378;52.404;20.816;2023-02-28T01:46:08;39.47;;;12.98;;
69260;SDS011;56378;52.404;20.816;2023-02-28T01:48:35;35.38;;;12.55;;
69260;SDS011;56378;52.404;20.816;2023-02-28T01:51:06;36.92;;;12.40;;
69260;SDS011;56378;52.404;20.816;2023-02-28T01:53:37;35.37;;;12.63;;
69260;SDS011;56378;52.404;20.816;2023-02-28T01:56:08;34.22;;;13.13;;
69260;SDS011;56378;52.404;20.816;2023-02-28T01:58:35;36.83;;;12.13;;
69260;SDS011;56378;52.404;20.816;2023-02-28T02:01:02;36.70;;;12.55;;
69260;SDS011;56378;52.404;20.816;2023-02-28T02:03:28;35.88;;;12.32;;
69260;SDS011;56378;52.404;20.816;2023-02-28T02:05:56;38.85;;;13.60;;
69260;SDS011;56378;52.404;20.816;2023-02-28T02:08:25;41.00;;;12.93;;
69260;SDS011;56378;52.404;20.816;2023-02-28T02:11:00;41.47;;;12.73;;
69260;SDS011;56378;52.404;20.816;2023-02-28T02:18:57;36.35;;;12.52;;
69260;SDS011;56378;52.404;20.816;2023-02-28T02:48:46;31.88;;;10.48;;
69260;SDS011;56378;52.404;20.816;2023-02-28T02:51:15;33.67;;;10.68;;
69260;SDS011;56378;52.404;20.816;2023-02-28T02:53:48;27.08;;;10.00;;
69260;SDS011;56378;52.404;20.816;2023-02-28T02:56:19;31.40;;;10.67;;
69260;SDS011;56378;52.404;20.816;2023-02-28T02:58:49;27.95;;;10.32;;
69260;SDS011;56378;52.404;20.816;2023-02-28T03:01:19;30.77;;;10.55;;
69260;SDS011;56378;52.404;20.816;2023-02-28T03:03:53;26.33;;;10.00;;
69260;SDS011;56378;52.404;20.816;2023-02-28T03:06:21;28.75;;;10.43;;
69260;SDS011;56378;52.404;20.816;2023-02-28T03:08:47;29.60;;;9.63;;
69260;SDS011;56378;52.404;20.816;2023-02-28T03:11:14;28.20;;;9.93;;
69260;SDS011;56378;52.404;20.816;2023-02-28T03:27:53;26.27;;;9.30;;
69260;SDS011;56378;52.404;20.816;2023-02-28T03:30:24;27.52;;;9.73;;
69260;SDS011;56378;52.404;20.816;2023-02-28T03:35:23;25.40;;;9.43;;
69260;SDS011;56378;52.404;20.816;2023-02-28T03:37:54;32.22;;;10.48;;
69260;SDS011;56378;52.404;20.816;2023-02-28T03:40:27;27.80;;;10.20;;
69260;SDS011;56378;52.404;20.816;2023-02-28T03:42:59;33.20;;;10.32;;
69260;SDS011;56378;52.404;20.816;2023-02-28T03:45:28;27.67;;;9.67;;
69260;SDS011;56378;52.404;20.816;2023-02-28T03:50:43;33.03;;;12.35;;
69260;SDS011;56378;52.404;20.816;2023-02-28T03:53:25;41.33;;;13.80;;
69260;SDS011;56378;52.404;20.816;2023-02-28T03:55:59;41.83;;;14.30;;
69260;SDS011;56378;52.404;20.816;2023-02-28T04:04:03;32.92;;;11.77;;
69260;SDS011;56378;52.404;20.816;2023-02-28T04:06:30;31.27;;;11.52;;
69260;SDS011;56378;52.404;20.816;2023-02-28T04:08:57;35.40;;;11.55;;
69260;SDS011;56378;52.404;20.816;2023-02-28T04:11:26;34.10;;;11.80;;
69260;SDS011;56378;52.404;20.816;2023-02-28T04:14:01;34.17;;;11.20;;
69260;SDS011;56378;52.404;20.816;2023-02-28T04:16:28;37.90;;;11.85;;
69260;SDS011;56378;52.404;20.816;2023-02-28T04:18:54;27.98;;;10.40;;
69260;SDS011;56378;52.404;20.816;2023-02-28T04:21:27;31.00;;;11.18;;
69260;SDS011;56378;52.404;20.816;2023-02-28T04:24:01;29.57;;;10.63;;
69260;SDS011;56378;52.404;20.816;2023-02-28T04:26:29;32.67;;;11.43;;
69260;SDS011;56378;52.404;20.816;2023-02-28T04:28:59;33.05;;;11.20;;
69260;SDS011;56378;52.404;20.816;2023-02-28T04:31:27;32.90;;;12.30;;
69260;SDS011;56378;52.404;20.816;2023-02-28T04:33:53;36.70;;;11.00;;
69260;SDS011;56378;52.404;20.816;2023-02-28T04:36:19;29.35;;;10.93;;
69260;SDS011;56378;52.404;20.816;2023-02-28T04:38:45;32.83;;;10.70;;
69260;SDS011;56378;52.404;20.816;2023-02-28T04:41:11;29.83;;;11.70;;
69260;SDS011;56378;52.404;20.816;2023-02-28T04:43:38;35.08;;;12.45;;
69260;SDS011;56378;52.404;20.816;2023-02-28T04:46:04;30.73;;;11.25;;
69260;SDS011;56378;52.404;20.816;2023-02-28T04:48:32;34.13;;;11.57;;
69260;SDS011;56378;52.404;20.816;2023-02-28T04:51:02;35.97;;;12.27;;
69260;SDS011;56378;52.404;20.816;2023-02-28T04:53:28;36.17;;;13.07;;
69260;SDS011;56378;52.404;20.816;2023-02-28T04:55:54;41.85;;;13.85;;
69260;SDS011;56378;52.404;20.816;2023-02-28T04:58:20;53.30;;;16.37;;
69260;SDS011;56378;52.404;20.816;2023-02-28T05:00:48;55.28;;;16.67;;
69260;SDS011;56378;52.404;20.816;2023-02-28T05:03:18;57.15;;;17.25;;
69260;SDS011;56378;52.404;20.816;2023-02-28T05:05:45;43.90;;;14.50;;
69260;SDS011;56378;52.404;20.816;2023-02-28T05:08:11;45.00;;;13.85;;
69260;SDS011;56378;52.404;20.816;2023-02-28T05:10:37;48.40;;;14.83;;
69260;SDS011;56378;52.404;20.816;2023-02-28T05:13:03;51.25;;;15.77;;
69260;SDS011;56378;52.404;20.816;2023-02-28T05:15:29;46.28;;;14.15;;
69260;SDS011;56378;52.404;20.816;2023-02-28T05:17:55;49.50;;;16.95;;
69260;SDS011;56378;52.404;20.816;2023-02-28T05:20:20;53.93;;;17.10;;
69260;SDS011;56378;52.404;20.816;2023-02-28T05:22:46;52.67;;;17.25;;
69260;SDS011;56378;52.404;20.816;2023-02-28T05:25:16;46.47;;;15.35;;
69260;SDS011;56378;52.404;20.816;2023-02-28T05:27:43;37.50;;;13.70;;
69260;SDS011;56378;52.404;20.816;2023-02-28T05:30:09;43.17;;;14.23;;
69260;SDS011;56378;52.404;20.816;2023-02-28T05:32:38;40.20;;;13.35;;
69260;SDS011;56378;52.404;20.816;2023-02-28T05:35:08;42.92;;;13.93;;
69260;SDS011;56378;52.404;20.816;2023-02-28T05:37:35;40.15;;;13.15;;
69260;SDS011;56378;52.404;20.816;2023-02-28T05:40:01;38.80;;;12.98;;
69260;SDS011;56378;52.404;20.816;2023-02-28T05:42:31;36.13;;;13.10;;
69260;SDS011;56378;52.404;20.816;2023-02-28T05:44:57;39.97;;;12.57;;
69260;SDS011;56378;52.404;20.816;2023-02-28T05:47:22;35.30;;;12.38;;
69260;SDS011;56378;52.404;20.816;2023-02-28T05:49:48;30.17;;;11.67;;
69260;SDS011;56378;52.404;20.816;2023-02-28T05:52:14;33.45;;;11.85;;
69260;SDS011;56378;52.404;20.816;2023-02-28T05:54:40;30.65;;;11.27;;
69260;SDS011;56378;52.404;20.816;2023-02-28T05:57:06;34.25;;;12.45;;
69260;SDS011;56378;52.404;20.816;2023-02-28T05:59:32;28.02;;;10.25;;
69260;SDS011;56378;52.404;20.816;2023-02-28T06:01:57;28.90;;;10.77;;
69260;SDS011;56378;52.404;20.816;2023-02-28T06:04:23;28.30;;;10.70;;
69260;SDS011;56378;52.404;20.816;2023-02-28T06:06:49;36.57;;;11.70;;
69260;SDS011;56378;52.404;20.816;2023-02-28T06:09:16;31.98;;;11.95;;
69260;SDS011;56378;52.404;20.816;2023-02-28T06:11:42;33.40;;;11.38;;
69260;SDS011;56378;52.404;20.816;2023-02-28T06:14:12;35.63;;;11.83;;
69260;SDS011;56378;52.404;20.816;2023-02-28T06:16:41;31.25;;;11.30;;
69260;SDS011;56378;52.404;20.816;2023-02-28T06:19:06;32.97;;;11.88;;
69260;SDS011;56378;52.404;20.816;2023-02-28T06:21:34;35.33;;;11.77;;
69260;SDS011;56378;52.404;20.816;2023-02-28T06:23:59;32.83;;;12.47;;
69260;SDS011;56378;52.404;20.816;2023-02-28T06:26:25;35.58;;;12.73;;
69260;SDS011;56378;52.404;20.816;2023-02-28T06:28:51;30.33;;;12.80;;
69260;SDS011;56378;52.404;20.816;2023-02-28T06:31:17;33.33;;;12.57;;
69260;SDS011;56378;52.404;20.816;2023-02-28T06:33:44;27.55;;;10.85;;
69260;SDS011;56378;52.404;20.816;2023-02-28T06:36:11;30.00;;;11.30;;
69260;SDS011;56378;52.404;20.816;2023-02-28T06:38:38;27.23;;;11.23;;
69260;SDS011;56378;52.404;20.816;2023-02-28T06:41:06;26.13;;;11.32;;
69260;SDS011;56378;52.404;20.816;2023-02-28T06:43:36;27.48;;;11.50;;
69260;SDS011;56378;52.404;20.816;2023-02-28T06:46:07;28.73;;;12.02;;
69260;SDS011;56378;52.404;20.816;2023-02-28T06:48:35;27.40;;;12.65;;
69260;SDS011;56378;52.404;20.816;2023-02-28T06:51:02;29.75;;;11.68;;
69260;SDS011;56378;52.404;20.816;2023-02-28T06:53:32;26.65;;;11.20;;
69260;SDS011;56378;52.404;20.816;2023-02-28T06:55:59;26.58;;;11.30;;
69260;SDS011;56378;52.404;20.816;2023-02-28T06:58:28;24.85;;;11.48;;
69260;SDS011;56378;52.404;20.816;2023-02-28T07:00:54;25.27;;;11.27;;
69260;SDS011;56378;52.404;20.816;2023-02-28T07:03:21;27.90;;;11.88;;
69260;SDS011;56378;52.404;20.816;2023-02-28T07:05:46;21.37;;;10.67;;
69260;SDS011;56378;52.404;20.816;2023-02-28T07:08:12;25.70;;;11.20;;
69260;SDS011;56378;52.404;20.816;2023-02-28T07:10:38;23.37;;;11.33;;
69260;SDS011;56378;52.404;20.816;2023-02-28T07:13:04;29.60;;;12.15;;
69260;SDS011;56378;52.404;20.816;2023-02-28T07:15:30;24.80;;;10.50;;
69260;SDS011;56378;52.404;20.816;2023-02-28T07:17:56;26.57;;;11.53;;
69260;SDS011;56378;52.404;20.816;2023-02-28T07:20:22;25.00;;;11.43;;
69260;SDS011;56378;52.404;20.816;2023-02-28T07:22:49;22.53;;;11.33;;
69260;SDS011;56378;52.404;20.816;2023-02-28T07:25:24;24.40;;;11.48;;
69260;SDS011;56378;52.404;20.816;2023-02-28T07:27:52;29.13;;;13.02;;
69260;SDS011;56378;52.404;20.816;2023-02-28T07:30:18;25.60;;;12.05;;
69260;SDS011;56378;52.404;20.816;2023-02-28T07:32:44;23.47;;;12.60;;
69260;SDS011;56378;52.404;20.816;2023-02-28T07:35:10;22.20;;;10.82;;
69260;SDS011;56378;52.404;20.816;2023-02-28T07:37:36;23.38;;;11.95;;
69260;SDS011;56378;52.404;20.816;2023-02-28T07:40:05;20.07;;;10.07;;
69260;SDS011;56378;52.404;20.816;2023-02-28T07:42:33;24.50;;;10.68;;
69260;SDS011;56378;52.404;20.816;2023-02-28T07:45:00;22.33;;;10.55;;
69260;SDS011;56378;52.404;20.816;2023-02-28T07:47:26;20.98;;;9.70;;
69260;SDS011;56378;52.404;20.816;2023-02-28T07:49:53;29.37;;;12.20;;
69260;SDS011;56378;52.404;20.816;2023-02-28T07:52:19;27.40;;;11.38;;
69260;SDS011;56378;52.404;20.816;2023-02-28T07:54:44;20.10;;;9.03;;
69260;SDS011;56378;52.404;20.816;2023-02-28T07:57:10;17.75;;;8.20;;
69260;SDS011;56378;52.404;20.816;2023-02-28T07:59:36;16.30;;;6.40;;
69260;SDS011;56378;52.404;20.816;2023-02-28T08:02:02;16.03;;;6.90;;
69260;SDS011;56378;52.404;20.816;2023-02-28T08:04:27;18.07;;;7.97;;
69260;SDS011;56378;52.404;20.816;2023-02-28T08:06:57;22.58;;;8.57;;
69260;SDS011;56378;52.404;20.816;2023-02-28T08:09:22;12.95;;;5.70;;
69260;SDS011;56378;52.404;20.816;2023-02-28T08:11:48;11.47;;;4.47;;
69260;SDS011;56378;52.404;20.816;2023-02-28T08:14:14;8.90;;;4.03;;
69260;SDS011;56378;52.404;20.816;2023-02-28T08:16:40;10.93;;;4.83;;
69260;SDS011;56378;52.404;20.816;2023-02-28T08:19:05;11.07;;;5.32;;
69260;SDS011;56378;52.404;20.816;2023-02-28T08:21:31;10.37;;;5.03;;
69260;SDS011;56378;52.404;20.816;2023-02-28T08:23:58;12.18;;;5.07;;
69260;SDS011;56378;52.404;20.816;2023-02-28T08:26:23;10.60;;;5.17;;
69260;SDS011;56378;52.404;20.816;2023-02-28T08:28:49;11.20;;;5.28;;
69260;SDS011;56378;52.404;20.816;2023-02-28T08:31:16;10.27;;;5.40;;
69260;SDS011;56378;52.404;20.816;2023-02-28T08:33:42;11.98;;;5.65;;
69260;SDS011;56378;52.404;20.816;2023-02-28T08:36:09;12.05;;;5.57;;
69260;SDS011;56378;52.404;20.816;2023-02-28T08:38:36;10.20;;;5.95;;
69260;SDS011;56378;52.404;20.816;2023-02-28T08:41:06;11.52;;;5.63;;
69260;SDS011;56378;52.404;20.816;2023-02-28T08:43:34;10.50;;;5.60;;
69260;SDS011;56378;52.404;20.816;2023-02-28T08:46:00;10.88;;;5.90;;
69260;SDS011;56378;52.404;20.816;2023-02-28T08:48:26;10.40;;;4.90;;
69260;SDS011;56378;52.404;20.816;2023-02-28T08:53:23;10.43;;;5.18;;
69260;SDS011;56378;52.404;20.816;2023-02-28T08:55:55;9.17;;;5.00;;
69260;SDS011;56378;52.404;20.816;2023-02-28T08:58:22;10.27;;;5.43;;
69260;SDS011;56378;52.404;20.816;2023-02-28T09:00:47;9.85;;;5.05;;
69260;SDS011;56378;52.404;20.816;2023-02-28T09:03:13;10.27;;;5.00;;
69260;SDS011;56378;52.404;20.816;2023-02-28T09:05:39;10.07;;;5.23;;
69260;SDS011;56378;52.404;20.816;2023-02-28T09:08:04;10.73;;;5.40;;
69260;SDS011;56378;52.404;20.816;2023-02-28T09:10:30;10.87;;;5.20;;
69260;SDS011;56378;52.404;20.816;2023-02-28T09:12:56;9.75;;;5.50;;
69260;SDS011;56378;52.404;20.816;2023-02-28T09:15:21;10.57;;;5.53;;
69260;SDS011;56378;52.404;20.816;2023-02-28T09:17:47;10.55;;;5.30;;
69260;SDS011;56378;52.404;20.816;2023-02-28T09:20:13;11.30;;;6.03;;
69260;SDS011;56378;52.404;20.816;2023-02-28T09:22:38;10.98;;;5.63;;
69260;SDS011;56378;52.404;20.816;2023-02-28T09:25:04;10.73;;;5.50;;
69260;SDS011;56378;52.404;20.816;2023-02-28T09:27:30;10.27;;;5.30;;
69260;SDS011;56378;52.404;20.816;2023-02-28T09:29:55;10.47;;;5.67;;
69260;SDS011;56378;52.404;20.816;2023-02-28T09:32:21;11.68;;;5.72;;
69260;SDS011;56378;52.404;20.816;2023-02-28T09:34:47;9.53;;;5.70;;
69260;SDS011;56378;52.404;20.816;2023-02-28T09:37:13;10.00;;;5.40;;
69260;SDS011;56378;52.404;20.816;2023-02-28T09:39:38;9.30;;;5.43;;
69260;SDS011;56378;52.404;20.816;2023-02-28T09:42:04;12.90;;;6.00;;
69260;SDS011;56378;52.404;20.816;2023-02-28T09:47:05;11.00;;;5.47;;
69260;SDS011;56378;52.404;20.816;2023-02-28T09:49:34;10.63;;;5.40;;
69260;SDS011;56378;52.404;20.816;2023-02-28T09:52:13;9.88;;;5.38;;
69260;SDS011;56378;52.404;20.816;2023-02-28T09:54:42;10.35;;;5.35;;
69260;SDS011;56378;52.404;20.816;2023-02-28T10:00:19;11.07;;;5.80;;
69260;SDS011;56378;52.404;20.816;2023-02-28T10:05:27;11.57;;;5.80;;
69260;SDS011;56378;52.404;20.816;2023-02-28T10:08:23;10.93;;;5.80;;
69260;SDS011;56378;52.404;20.816;2023-02-28T10:10:57;11.35;;;6.55;;
69260;SDS011;56378;52.404;20.816;2023-02-28T10:16:13;12.10;;;5.75;;
69260;SDS011;56378;52.404;20.816;2023-02-28T10:18:48;12.88;;;6.50;;
69260;SDS011;56378;52.404;20.816;2023-02-28T10:21:29;12.60;;;6.13;;
69260;SDS011;56378;52.404;20.816;2023-02-28T10:24:43;11.65;;;6.60;;
69260;SDS011;56378;52.404;20.816;2023-02-28T10:27:01;11.13;;;6.43;;
69260;SDS011;56378;52.404;20.816;2023-02-28T10:29:43;13.30;;;6.72;;
69260;SDS011;56378;52.404;20.816;2023-02-28T10:32:15;11.88;;;6.90;;
69260;SDS011;56378;52.404;20.816;2023-02-28T10:34:43;13.13;;;6.72;;
69260;SDS011;56378;52.404;20.816;2023-02-28T10:37:10;10.25;;;6.07;;
69260;SDS011;56378;52.404;20.816;2023-02-28T10:39:41;12.60;;;5.63;;
69260;SDS011;56378;52.404;20.816;2023-02-28T10:42:25;10.85;;;5.43;;
69260;SDS011;56378;52.404;20.816;2023-02-28T10:45:14;11.98;;;6.57;;
69260;SDS011;56378;52.404;20.816;2023-02-28T10:47:59;9.93;;;5.85;;
69260;SDS011;56378;52.404;20.816;2023-02-28T10:58:27;12.38;;;6.50;;
69260;SDS011;56378;52.404;20.816;2023-02-28T11:01:13;11.60;;;6.38;;
69260;SDS011;56378;52.404;20.816;2023-02-28T11:03:41;11.60;;;6.20;;
69260;SDS011;56378;52.404;20.816;2023-02-28T11:06:08;12.77;;;6.33;;
69260;SDS011;56378;52.404;20.816;2023-02-28T11:08:49;12.10;;;6.68;;
69260;SDS011;56378;52.404;20.816;2023-02-28T11:11:20;11.70;;;6.45;;
69260;SDS011;56378;52.404;20.816;2023-02-28T11:13:50;16.20;;;6.80;;
69260;SDS011;56378;52.404;20.816;2023-02-28T11:16:18;13.65;;;6.50;;
69260;SDS011;56378;52.404;20.816;2023-02-28T11:21:25;11.25;;;6.03;;
69260;SDS011;56378;52.404;20.816;2023-02-28T11:24:01;12.85;;;5.80;;
69260;SDS011;56378;52.404;20.816;2023-02-28T11:26:41;13.03;;;6.10;;
69260;SDS011;56378;52.404;20.816;2023-02-28T11:29:22;12.18;;;6.25;;
69260;SDS011;56378;52.404;20.816;2023-02-28T11:34:36;11.82;;;6.15;;
69260;SDS011;56378;52.404;20.816;2023-02-28T11:37:03;10.32;;;5.63;;
69260;SDS011;56378;52.404;20.816;2023-02-28T11:39:33;11.30;;;6.00;;
69260;SDS011;56378;52.404;20.816;2023-02-28T11:47:53;13.53;;;5.93;;
69260;SDS011;56378;52.404;20.816;2023-02-28T11:55:53;11.02;;;5.53;;
69260;SDS011;56378;52.404;20.816;2023-02-28T12:04:07;11.40;;;5.50;;
69260;SDS011;56378;52.404;20.816;2023-02-28T12:09:44;9.85;;;5.00;;
69260;SDS011;56378;52.404;20.816;2023-02-28T12:15:16;11.07;;;4.80;;
69260;SDS011;56378;52.404;20.816;2023-02-28T12:17:53;12.30;;;6.10;;
69260;SDS011;56378;52.404;20.816;2023-02-28T12:23:50;12.00;;;6.35;;
69260;SDS011;56378;52.404;20.816;2023-02-28T12:26:38;12.60;;;6.10;;
69260;SDS011;56378;52.404;20.816;2023-02-28T12:32:14;11.23;;;5.63;;
69260;SDS011;56378;52.404;20.816;2023-02-28T12:34:51;12.43;;;5.53;;
69260;SDS011;56378;52.404;20.816;2023-02-28T12:37:44;12.63;;;5.47;;
69260;SDS011;56378;52.404;20.816;2023-02-28T12:40:29;12.70;;;5.35;;
69260;SDS011;56378;52.404;20.816;2023-02-28T12:43:07;11.07;;;5.23;;
69260;SDS011;56378;52.404;20.816;2023-02-28T12:45:52;11.07;;;5.45;;
69260;SDS011;56378;52.404;20.816;2023-02-28T12:48:26;10.23;;;5.68;;
69260;SDS011;56378;52.404;20.816;2023-02-28T12:50:56;13.52;;;5.70;;
69260;SDS011;56378;52.404;20.816;2023-02-28T12:53:28;11.38;;;5.30;;
69260;SDS011;56378;52.404;20.816;2023-02-28T12:58:51;10.00;;;5.63;;
69260;SDS011;56378;52.404;20.816;2023-02-28T13:06:59;10.07;;;5.20;;
69260;SDS011;56378;52.404;20.816;2023-02-28T13:09:38;12.00;;;5.83;;
69260;SDS011;56378;52.404;20.816;2023-02-28T13:12:14;11.85;;;6.13;;
69260;SDS011;56378;52.404;20.816;2023-02-28T13:14:41;12.70;;;6.50;;
69260;SDS011;56378;52.404;20.816;2023-02-28T13:19:41;13.98;;;6.57;;
69260;SDS011;56378;52.404;20.816;2023-02-28T13:22:18;13.43;;;6.40;;
69260;SDS011;56378;52.404;20.816;2023-02-28T13:27:50;10.73;;;6.10;;
69260;SDS011;56378;52.404;20.816;2023-02-28T13:46:31;13.02;;;6.45;;
69260;SDS011;56378;52.404;20.816;2023-02-28T13:51:49;14.98;;;6.30;;
69260;SDS011;56378;52.404;20.816;2023-02-28T14:02:33;12.13;;;5.90;;
69260;SDS011;56378;52.404;20.816;2023-02-28T14:05:18;10.80;;;5.68;;
69260;SDS011;56378;52.404;20.816;2023-02-28T14:07:51;11.18;;;5.10;;
69260;SDS011;56378;52.404;20.816;2023-02-28T14:10:39;11.85;;;5.40;;
69260;SDS011;56378;52.404;20.816;2023-02-28T14:18:21;12.32;;;5.55;;
69260;SDS011;56378;52.404;20.816;2023-02-28T14:21:03;11.48;;;5.65;;
69260;SDS011;56378;52.404;20.816;2023-02-28T14:32:05;12.35;;;5.90;;
69260;SDS011;56378;52.404;20.816;2023-02-28T14:35:05;14.55;;;5.90;;
69260;SDS011;56378;52.404;20.816;2023-02-28T14:37:52;14.75;;;6.00;;
69260;SDS011;56378;52.404;20.816;2023-02-28T14:40:35;15.73;;;6.53;;
69260;SDS011;56378;52.404;20.816;2023-02-28T14:43:04;14.65;;;6.05;;
69260;SDS011;56378;52.404;20.816;2023-02-28T14:45:42;13.88;;;6.38;;
69260;SDS011;56378;52.404;20.816;2023-02-28T14:48:09;15.20;;;6.20;;
69260;SDS011;56378;52.404;20.816;2023-02-28T14:50:36;14.77;;;6.17;;
69260;SDS011;56378;52.404;20.816;2023-02-28T14:53:03;15.15;;;6.57;;
69260;SDS011;56378;52.404;20.816;2023-02-28T14:55:33;14.27;;;6.03;;
69260;SDS011;56378;52.404;20.816;2023-02-28T14:58:04;16.13;;;6.95;;
69260;SDS011;56378;52.404;20.816;2023-02-28T15:00:32;14.00;;;6.45;;
69260;SDS011;56378;52.404;20.816;2023-02-28T15:03:01;16.48;;;6.35;;
69260;SDS011;56378;52.404;20.816;2023-02-28T15:06:11;13.90;;;7.00;;
69260;SDS011;56378;52.404;20.816;2023-02-28T15:08:45;15.80;;;6.35;;
69260;SDS011;56378;52.404;20.816;2023-02-28T15:13:45;19.25;;;7.43;;
69260;SDS011;56378;52.404;20.816;2023-02-28T15:16:14;19.33;;;6.95;;
69260;SDS011;56378;52.404;20.816;2023-02-28T15:19:00;20.35;;;9.52;;
69260;SDS011;56378;52.404;20.816;2023-02-28T15:21:37;17.15;;;7.57;;
69260;SDS011;56378;52.404;20.816;2023-02-28T15:26:57;16.98;;;7.82;;
69260;SDS011;56378;52.404;20.816;2023-02-28T15:29:25;18.33;;;6.45;;
69260;SDS011;56378;52.404;20.816;2023-02-28T15:31:58;16.98;;;6.57;;
69260;SDS011;56378;52.404;20.816;2023-02-28T15:37:07;15.57;;;6.00;;
69260;SDS011;56378;52.404;20.816;2023-02-28T15:39:56;15.38;;;6.80;;
69260;SDS011;56378;52.404;20.816;2023-02-28T15:42:29;16.63;;;7.07;;
69260;SDS011;56378;52.404;20.816;2023-02-28T15:44:56;16.25;;;7.20;;
69260;SDS011;56378;52.404;20.816;2023-02-28T15:47:26;16.75;;;7.63;;
69260;SDS011;56378;52.404;20.816;2023-02-28T15:55:08;14.77;;;6.80;;
69260;SDS011;56378;52.404;20.816;2023-02-28T15:57:50;14.85;;;6.90;;
69260;SDS011;56378;52.404;20.816;2023-02-28T16:00:21;19.95;;;8.02;;
69260;SDS011;56378;52.404;20.816;2023-02-28T16:02:48;17.02;;;8.30;;
69260;SDS011;56378;52.404;20.816;2023-02-28T16:05:20;66.40;;;20.17;;
69260;SDS011;56378;52.404;20.816;2023-02-28T16:07:55;216.93;;;58.80;;
69260;SDS011;56378;52.404;20.816;2023-02-28T16:10:22;212.50;;;55.30;;
69260;SDS011;56378;52.404;20.816;2023-02-28T16:12:52;242.18;;;63.47;;
69260;SDS011;56378;52.404;20.816;2023-02-28T16:15:21;138.80;;;39.15;;
69260;SDS011;56378;52.404;20.816;2023-02-28T16:17:47;50.90;;;17.42;;
69260;SDS011;56378;52.404;20.816;2023-02-28T16:20:14;151.75;;;41.00;;
69260;SDS011;56378;52.404;20.816;2023-02-28T16:22:43;149.55;;;42.35;;
69260;SDS011;56378;52.404;20.816;2023-02-28T16:25:14;125.22;;;37.75;;
69260;SDS011;56378;52.404;20.816;2023-02-28T16:27:40;79.82;;;25.17;;
69260;SDS011;56378;52.404;20.816;2023-02-28T16:30:19;37.45;;;14.63;;
69260;SDS011;56378;52.404;20.816;2023-02-28T16:32:49;22.05;;;8.48;;
69260;SDS011;56378;52.404;20.816;2023-02-28T16:35:15;18.58;;;7.22;;
69260;SDS011;56378;52.404;20.816;2023-02-28T16:37:42;18.25;;;6.50;;
69260;SDS011;56378;52.404;20.816;2023-02-28T16:40:18;15.25;;;5.60;;
69260;SDS011;56378;52.404;20.816;2023-02-28T16:42:48;18.40;;;6.15;;
69260;SDS011;56378;52.404;20.816;2023-02-28T16:45:17;14.70;;;5.30;;
69260;SDS011;56378;52.404;20.816;2023-02-28T16:47:46;16.90;;;5.70;;
69260;SDS011;56378;52.404;20.816;2023-02-28T16:50:21;15.48;;;5.55;;
69260;SDS011;56378;52.404;20.816;2023-02-28T16:52:49;15.27;;;5.90;;
69260;SDS011;56378;52.404;20.816;2023-02-28T16:55:17;14.07;;;5.83;;
69260;SDS011;56378;52.404;20.816;2023-02-28T16:57:44;14.38;;;5.85;;
69260;SDS011;56378;52.404;20.816;2023-02-28T17:00:16;16.83;;;6.43;;
69260;SDS011;56378;52.404;20.816;2023-02-28T17:02:42;17.80;;;6.30;;
69260;SDS011;56378;52.404;20.816;2023-02-28T17:05:10;19.47;;;7.77;;
69260;SDS011;56378;52.404;20.816;2023-02-28T17:07:37;18.25;;;6.30;;
69260;SDS011;56378;52.404;20.816;2023-02-28T17:10:13;23.58;;;8.38;;
69260;SDS011;56378;52.404;20.816;2023-02-28T17:12:42;23.35;;;8.90;;
69260;SDS011;56378;52.404;20.816;2023-02-28T17:15:08;25.63;;;9.50;;
69260;SDS011;56378;52.404;20.816;2023-02-28T17:17:38;28.13;;;10.32;;
69260;SDS011;56378;52.404;20.816;2023-02-28T17:20:05;28.08;;;10.43;;
69260;SDS011;56378;52.404;20.816;2023-02-28T17:22:32;32.55;;;12.20;;
69260;SDS011;56378;52.404;20.816;2023-02-28T17:24:57;34.45;;;12.75;;
69260;SDS011;56378;52.404;20.816;2023-02-28T17:27:23;31.65;;;12.40;;
69260;SDS011;56378;52.404;20.816;2023-02-28T17:29:50;33.38;;;12.73;;
69260;SDS011;56378;52.404;20.816;2023-02-28T17:32:16;38.75;;;14.32;;
69260;SDS011;56378;52.404;20.816;2023-02-28T17:34:42;34.27;;;13.80;;